Centenario, Argentina
Current Conditions -  °F | °C
As of 2:00 PM on Thursday 23 Oct 2014 (Local Time) from SAZN Reporting Station
Clear Clear  
Wind Chill: 81°   Ceiling: Unl
Heat Index: 81°   Visibility: 6mi
Dew Point: 45°   Wind: 5mph
Humidity: 28%   Direction: 50°NE
Pressure: 29.97"   Gusts: NA
Location:  38.8°S, 68.13°W
Report Text: SAZN 231700Z 05004KT CAVOK 27/07 Q1015
Loading
Personal Weather Stations






























Interactive Weather Map New forecast layout! Learn more

10-Day Weather Forecast

Advertisements
Track Severe Weather on mobile